Погода Ловична 2 недели

Лодзинское воеводство, Польша

17 - 30 июля
  • 17июля
    Сегодня
    +15°
    +28°
    Облачно с прояснениями
    ВремяПогодаТемператураВлажностьДавлениеВетер, м/сВероятность осадков
    02:00Ясно и безоблачно+20°C85 %755 мм2.2 м/с2 %
    05:00Практически безоблачно+18°C90 %756 мм2.5 м/с2 %
    08:00Ясно и безоблачно+23°C68 %757 мм3.6 м/с2 %
    11:00Ясно и безоблачно+26°C40 %757 мм3.4 м/с2 %
    14:00Облачно с прояснениями+27°C37 %757 мм4.8 м/с6 %
    17:00Облачно с прояснениями+28°C36 %757 мм4.2 м/с15 %
    20:00Практически безоблачно+24°C45 %758 мм3.1 м/с2 %
    23:00Облачно с прояснениями+20°C66 %759 мм2.5 м/с15 %
  • 18июля
    Четверг
    +14°
    +27°
    Облачно с прояснениями
    ВремяПогодаТемператураВлажностьДавлениеВетер, м/сВероятность осадков
    02:00Ясно и безоблачно+18°C87 %759 мм1.9 м/с14 %
    05:00Ясно и безоблачно+16°C89 %759 мм1.5 м/с2 %
    08:00Ясно и безоблачно+20°C73 %760 мм1.8 м/с2 %
    11:00Небольшая облачность+25°C47 %760 мм3.6 м/с2 %
    14:00Облачно с прояснениями+26°C41 %759 мм4.1 м/с2 %
    17:00Пасмурно, сплошная облачность+26°C42 %759 мм4.6 м/с2 %
    20:00Облачно с прояснениями+24°C49 %760 мм3.6 м/с2 %
    23:00Облачно с прояснениями+17°C71 %760 мм1.9 м/с2 %
  • 19июля
    Пятница
    +13°
    +27°
    Облачно с прояснениями
    ВремяПогодаТемператураВлажностьДавлениеВетер, м/сВероятность осадков
    02:00Небольшая облачность+16°C80 %760 мм1.7 м/с2 %
    05:00Облачно с прояснениями+14°C89 %760 мм2.0 м/с2 %
    08:00Облачно с прояснениями+20°C66 %760 мм1.2 м/с2 %
    11:00Облачно с прояснениями+24°C44 %760 мм2.4 м/с2 %
    14:00Облачно с прояснениями+25°C42 %759 мм2.8 м/с2 %
    17:00Облачно с прояснениями+26°C41 %758 мм3.2 м/с2 %
    20:00Практически безоблачно+24°C50 %758 мм2.0 м/с2 %
    23:00Ясно и безоблачно+17°C73 %757 мм2.3 м/с2 %
  • 20июля
    Суббота
    +13°
    +28°
    Ясно и безоблачно
    ВремяПогодаТемператураВлажностьДавлениеВетер, м/сВероятность осадков
    02:00Ясно и безоблачно+15°C80 %757 мм1.8 м/с2 %
    05:00Ясно и безоблачно+13°C86 %757 мм2.0 м/с2 %
    08:00Ясно и безоблачно+19°C64 %757 мм0.5 м/с2 %
    11:00Ясно и безоблачно+24°C45 %756 мм1.8 м/с2 %
    14:00Ясно и безоблачно+26°C39 %755 мм2.3 м/с2 %
    17:00Ясно и безоблачно+28°C37 %754 мм2.9 м/с2 %
    20:00Ясно и безоблачно+24°C40 %754 мм2.4 м/с2 %
    23:00Ясно и безоблачно+17°C60 %754 мм2.3 м/с2 %
  • 21июля
    Воскресенье
    +17°
    +31°
    Небольшая облачность
    ВремяПогодаТемператураВлажностьДавлениеВетер, м/сВероятность осадков
    02:00Ясно и безоблачно+15°C78 %754 мм2.0 м/с2 %
    05:00Практически безоблачно+15°C82 %753 мм1.3 м/с2 %
    08:00Ясно и безоблачно+20°C61 %753 мм0.9 м/с2 %
    11:00Ясно и безоблачно+27°C34 %753 мм0.6 м/с2 %
    14:00Небольшая облачность+29°C30 %751 мм0.7 м/с2 %
    17:00Небольшая облачность+31°C29 %750 мм2.8 м/с2 %
    20:00Ясно и безоблачно+26°C38 %749 мм2.1 м/с2 %
    23:00Ясно и безоблачно+21°C44 %749 мм2.6 м/с4 %
Мы используем cookies
Соглашаюсь